Time;durP1;ratioP1;P1;durP2;ratioP2;P2;SDS_P1;SDS_P2;PMS_P1;PMS_P2;Temp;Humidity;BMP_temperature;BMP_pressure;BME280_temperature;BME280_humidity;BME280_pressure;Samples;Min_cycle;Max_cycle;Signal;HPM_P1;HPM_P2
2022/06/02 00:01:55;;;;;;;13.13;5.80;;;538.50;2406.40;;;;;;5089258;28;20039;-79
2022/06/02 00:04:43;;;;;;;11.25;5.97;;;538.50;2406.40;;;;;;5109718;28;20036;-80
2022/06/02 00:07:17;;;;;;;11.40;6.38;;;538.50;2406.40;;;;;;5110143;28;20063;-80
2022/06/02 00:10:25;;;;;;;10.40;5.68;;;538.50;2406.40;;;;;;5110252;28;20081;-79
2022/06/02 00:13:23;;;;;;;11.80;6.72;;;538.50;2406.40;;;;;;5081745;28;20076;-80
2022/06/02 00:16:03;;;;;;;16.40;7.30;;;538.50;2406.40;;;;;;5070403;28;20085;-79
2022/06/02 00:18:41;;;;;;;10.27;5.38;;;538.50;2406.40;;;;;;5109870;28;20024;-79
2022/06/02 00:21:28;;;;;;;9.98;6.07;;;538.50;2406.40;;;;;;5094346;28;20107;-80
2022/06/02 00:24:01;;;;;;;13.32;6.18;;;538.50;2406.40;;;;;;5109611;28;20020;-78
2022/06/02 00:27:02;;;;;;;8.38;5.15;;;538.30;2406.40;;;;;;5094433;28;20023;-81
2022/06/02 00:29:33;;;;;;;14.80;5.53;;;538.30;2406.40;;;;;;5093008;28;20060;-80
2022/06/02 00:32:37;;;;;;;17.55;6.20;;;538.30;2406.40;;;;;;5109379;28;20024;-80
2022/06/02 00:35:21;;;;;;;9.10;5.40;;;538.20;2406.40;;;;;;5094252;28;20031;-79
2022/06/02 00:37:58;;;;;;;12.90;6.22;;;538.30;2406.40;;;;;;5109797;28;20024;-80
2022/06/02 00:40:26;;;;;;;14.43;6.20;;;538.30;2406.40;;;;;;5094089;28;20031;-80
2022/06/02 00:42:54;;;;;;;12.05;5.65;;;538.30;2406.40;;;;;;5109752;28;20059;-79
2022/06/02 00:45:21;;;;;;;13.38;5.53;;;538.20;2406.40;;;;;;5109517;28;20023;-80
2022/06/02 00:48:19;;;;;;;11.75;6.13;;;538.10;2406.40;;;;;;5109550;28;20028;-81
2022/06/02 00:51:15;;;;;;;9.85;5.72;;;538.00;2406.40;;;;;;5073088;28;20036;-80
2022/06/02 00:57:34;;;;;;;12.05;6.05;;;538.20;2406.40;;;;;;5093818;28;20093;-79
2022/06/02 01:00:08;;;;;;;12.27;6.10;;;538.30;2406.40;;;;;;5109211;28;20024;-80
2022/06/02 01:02:55;;;;;;;16.95;6.07;;;538.20;2406.40;;;;;;5093679;28;20026;-80
2022/06/02 01:05:58;;;;;;;13.43;6.25;;;538.30;2406.40;;;;;;5109406;28;20020;-79
2022/06/02 01:08:35;;;;;;;11.50;5.93;;;538.30;2406.40;;;;;;5093658;28;20097;-80
2022/06/02 01:11:12;;;;;;;12.48;5.78;;;538.30;2406.40;;;;;;5109353;28;20119;-80
2022/06/02 01:13:46;;;;;;;12.45;6.97;;;538.30;2406.40;;;;;;5109121;28;20101;-79
2022/06/02 01:16:31;;;;;;;14.65;5.80;;;538.30;2406.40;;;;;;5109323;28;20032;-79
2022/06/02 01:19:14;;;;;;;17.45;6.65;;;538.30;2406.40;;;;;;5109588;28;20442;-80
2022/06/02 01:22:19;;;;;;;13.68;6.32;;;538.30;2406.40;;;;;;5109055;28;20024;-79
2022/06/02 01:25:07;;;;;;;13.82;6.25;;;538.40;2406.40;;;;;;5076683;28;20039;-80
2022/06/02 01:28:11;;;;;;;16.90;7.05;;;538.40;2406.40;;;;;;5109397;28;20028;-79
2022/06/02 01:30:52;;;;;;;12.23;6.70;;;538.50;2406.40;;;;;;5078823;28;20075;-79
2022/06/02 01:33:24;;;;;;;12.15;6.03;;;538.50;2406.40;;;;;;5113289;28;20043;-79
2022/06/02 01:35:55;;;;;;;13.50;6.32;;;563.20;2432.00;;;;;;5113259;28;20035;-79
2022/06/02 01:38:56;;;;;;;16.65;6.28;;;538.50;2406.40;;;;;;5097406;28;20081;-80
2022/06/02 01:41:59;;;;;;;13.50;6.55;;;538.40;2406.40;;;;;;5086282;28;20032;-80
2022/06/02 01:44:33;;;;;;;13.77;6.82;;;538.30;2406.40;;;;;;5113031;28;20031;-79
2022/06/02 01:47:14;;;;;;;15.05;7.07;;;538.20;2406.40;;;;;;5113007;28;20031;-81
2022/06/02 01:50:06;;;;;;;14.48;6.60;;;538.30;2406.40;;;;;;5097027;28;20067;-80
2022/06/02 01:53:00;;;;;;;18.98;6.63;;;538.10;2406.40;;;;;;5112640;28;20037;-78
2022/06/02 01:55:44;;;;;;;14.10;6.10;;;538.00;2406.40;;;;;;5112533;28;20043;-80
2022/06/02 01:58:28;;;;;;;13.18;6.78;;;538.20;2406.40;;;;;;5112853;28;20024;-80
2022/06/02 02:01:16;;;;;;;9.95;5.55;;;538.30;2406.40;;;;;;5097345;28;20442;-79
2022/06/02 02:03:55;;;;;;;10.90;6.13;;;538.40;2406.40;;;;;;5114489;28;20087;-79
2022/06/02 02:06:35;;;;;;;13.30;6.82;;;538.40;2406.40;;;;;;5133229;28;20008;-79
2022/06/02 02:09:38;;;;;;;17.85;7.53;;;538.30;2406.40;;;;;;5128375;27;20112;-80
2022/06/02 02:12:08;;;;;;;14.35;7.57;;;538.00;2406.40;;;;;;5119243;28;20028;-80
2022/06/02 02:14:52;;;;;;;17.38;8.80;;;537.80;2406.40;;;;;;5120267;28;20064;-79
2022/06/02 02:17:24;;;;;;;17.05;8.13;;;537.70;2406.40;;;;;;5119610;28;20091;-79
2022/06/02 02:19:54;;;;;;;20.10;7.72;;;537.90;2406.40;;;;;;5114613;28;20024;-79
2022/06/02 02:22:35;;;;;;;14.15;7.30;;;537.90;2406.40;;;;;;5114920;28;20036;-79
2022/06/02 02:25:01;;;;;;;13.25;6.45;;;538.00;2406.40;;;;;;5114501;28;20028;-79
2022/06/02 02:30:27;;;;;;;15.07;7.55;;;538.10;2406.40;;;;;;5096281;28;20039;-81
2022/06/02 02:33:01;;;;;;;15.18;6.93;;;538.30;2406.40;;;;;;5112122;28;20028;-79
2022/06/02 02:35:38;;;;;;;20.98;6.93;;;538.20;2406.40;;;;;;5111820;28;20035;-79
2022/06/02 02:38:13;;;;;;;17.25;7.32;;;538.30;2406.40;;;;;;5111849;28;20024;-79
2022/06/02 02:41:09;;;;;;;14.63;6.90;;;538.30;2406.40;;;;;;5112066;28;20028;-80
2022/06/02 02:43:54;;;;;;;15.20;7.35;;;538.30;2406.40;;;;;;5093565;28;20488;-80
2022/06/02 02:46:49;;;;;;;14.52;7.35;;;538.30;2406.40;;;;;;5096396;28;20114;-80
2022/06/02 02:49:33;;;;;;;13.10;6.53;;;538.30;2406.40;;;;;;5111689;28;20020;-80
2022/06/02 02:52:30;;;;;;;12.07;6.78;;;538.20;2406.40;;;;;;5095714;28;20115;-80
2022/06/02 02:55:14;;;;;;;11.30;6.13;;;538.30;2406.40;;;;;;5112027;28;20074;-80
2022/06/02 02:57:58;;;;;;;12.98;6.38;;;538.20;2406.40;;;;;;5111921;28;20043;-80
2022/06/02 03:00:41;;;;;;;9.80;5.90;;;538.20;2406.40;;;;;;5111862;28;20024;-80
2022/06/02 03:03:17;;;;;;;10.13;6.35;;;538.30;2406.40;;;;;;5111811;28;20086;-80
2022/06/02 03:05:46;;;;;;;14.32;8.77;;;538.20;2406.40;;;;;;5111147;28;20042;-79
2022/06/02 03:08:35;;;;;;;20.30;9.45;;;538.00;2406.40;;;;;;5111366;28;20044;-80
2022/06/02 03:11:24;;;;;;;14.77;7.25;;;538.00;2406.40;;;;;;5095553;28;20051;-81
2022/06/02 03:14:18;;;;;;;13.77;6.13;;;538.20;2406.40;;;;;;5073158;28;20036;-79
2022/06/02 03:16:48;;;;;;;14.45;6.90;;;537.90;2406.40;;;;;;5111382;28;20349;-80
2022/06/02 03:19:31;;;;;;;18.40;7.78;;;537.60;2406.40;;;;;;5111335;28;20028;-80
2022/06/02 03:22:30;;;;;;;13.23;7.50;;;537.70;2406.40;;;;;;5111547;28;20388;-79
2022/06/02 03:25:09;;;;;;;10.63;7.00;;;537.90;2406.40;;;;;;5090330;28;20028;-80
2022/06/02 03:27:44;;;;;;;12.15;6.43;;;537.90;2406.40;;;;;;5111034;28;20024;-80
2022/06/02 03:30:21;;;;;;;12.05;6.35;;;538.00;2406.40;;;;;;5110163;28;20032;-80
2022/06/02 03:33:16;;;;;;;14.73;7.22;;;538.00;2406.40;;;;;;5110876;28;20361;-79
2022/06/02 03:36:00;;;;;;;12.57;7.43;;;538.00;2406.40;;;;;;5095585;28;20059;-81
2022/06/02 03:38:51;;;;;;;11.30;7.03;;;538.00;2406.40;;;;;;5110951;28;20032;-80
2022/06/02 03:41:32;;;;;;;15.13;9.05;;;537.90;2406.40;;;;;;5110909;28;20028;-79
2022/06/02 03:44:13;;;;;;;22.85;8.30;;;537.90;2406.40;;;;;;5111185;28;20042;-80
2022/06/02 03:47:04;;;;;;;26.38;9.30;;;537.70;2406.40;;;;;;5110855;28;20117;-80
2022/06/02 03:49:45;;;;;;;14.48;8.48;;;537.70;2406.40;;;;;;5110678;28;20031;-80
2022/06/02 03:52:17;;;;;;;12.38;8.52;;;537.90;2406.40;;;;;;5110255;28;20498;-80
2022/06/02 03:54:51;;;;;;;20.97;10.57;;;537.60;2406.40;;;;;;5110655;28;20028;-79
2022/06/02 03:57:49;;;;;;;17.88;10.43;;;512.80;2380.80;;;;;;5093557;28;20358;-80
2022/06/02 04:00:27;;;;;;;13.77;8.13;;;512.70;2380.80;;;;;;5093784;28;20035;-81
2022/06/02 04:03:02;;;;;;;18.42;8.52;;;512.60;2380.80;;;;;;5094365;28;20489;-80
2022/06/02 04:05:52;;;;;;;13.65;8.00;;;512.60;2380.80;;;;;;5110689;28;20027;-80
2022/06/02 04:08:36;;;;;;;17.02;7.63;;;512.50;2380.80;;;;;;5110011;28;20114;-81
2022/06/02 04:14:58;;;;;;;16.63;7.95;;;512.80;2380.80;;;;;;5094393;28;20082;-80
2022/06/02 04:17:39;;;;;;;15.10;9.15;;;512.90;2380.80;;;;;;5110376;28;20024;-81
2022/06/02 04:22:58;;;;;;;11.98;8.15;;;512.80;2380.80;;;;;;5094057;28;20221;-80
2022/06/02 04:25:46;;;;;;;19.20;8.93;;;512.90;2380.80;;;;;;5110137;28;20391;-80
2022/06/02 04:28:27;;;;;;;14.68;7.80;;;512.80;2380.80;;;;;;5110090;28;20028;-79
2022/06/02 04:31:11;;;;;;;14.55;7.60;;;512.70;2380.80;;;;;;5096619;28;20120;-79
2022/06/02 04:33:48;;;;;;;15.00;8.45;;;512.80;2380.80;;;;;;5089941;28;20028;-80
2022/06/02 04:36:36;;;;;;;16.38;8.30;;;512.90;2380.80;;;;;;5089504;28;20029;-80
2022/06/02 04:39:18;;;;;;;16.08;8.68;;;537.60;2406.40;;;;;;5089410;28;20028;-79
2022/06/02 04:41:57;;;;;;;18.53;8.30;;;537.60;2406.40;;;;;;5089726;28;20036;-80
2022/06/02 04:44:50;;;;;;;19.83;8.25;;;512.70;2380.80;;;;;;5089403;28;20383;-79
2022/06/02 04:47:57;;;;;;;13.30;9.13;;;512.80;2380.80;;;;;;5089525;28;20054;-80
2022/06/02 04:50:26;;;;;;;12.70;8.70;;;512.90;2380.80;;;;;;5067301;28;20032;-80
2022/06/02 04:53:24;;;;;;;14.23;8.15;;;537.70;2406.40;;;;;;5089480;28;20029;-80
2022/06/02 04:56:12;;;;;;;15.85;8.07;;;537.90;2406.40;;;;;;5064303;28;20040;-81
2022/06/02 04:59:10;;;;;;;16.27;7.63;;;537.90;2406.40;;;;;;5088798;28;20031;-78
2022/06/02 05:02:11;;;;;;;11.48;7.70;;;538.00;2406.40;;;;;;5089364;28;20112;-79
2022/06/02 05:04:51;;;;;;;15.65;7.45;;;538.10;2406.40;;;;;;5092943;28;20020;-79
2022/06/02 05:08:07;;;;;;;16.23;7.25;;;538.30;2406.40;;;;;;5093246;28;20040;-80
2022/06/02 05:10:49;;;;;;;13.25;7.35;;;538.50;2406.40;;;;;;5055047;28;20025;-80
2022/06/02 05:13:33;;;;;;;13.70;8.55;;;563.20;2432.00;;;;;;5050142;28;20111;-80
2022/06/02 05:16:11;;;;;;;16.42;8.30;;;563.30;2432.00;;;;;;5069760;28;20048;-79
2022/06/02 05:18:50;;;;;;;14.50;7.63;;;563.50;2432.00;;;;;;5093314;28;20058;-82
2022/06/02 05:21:18;;;;;;;15.98;6.60;;;563.60;2432.00;;;;;;5093241;28;20036;-80
2022/06/02 05:24:09;;;;;;;15.27;7.18;;;563.60;2432.00;;;;;;5093236;28;20535;-81
2022/06/02 05:27:05;;;;;;;16.55;6.80;;;563.50;2432.00;;;;;;5092836;28;20020;-81
2022/06/02 05:29:56;;;;;;;13.13;6.72;;;563.60;2432.00;;;;;;5092779;28;20025;-80
2022/06/02 05:32:41;;;;;;;18.95;9.15;;;563.60;2432.00;;;;;;5092557;28;20447;-80
2022/06/02 05:35:35;;;;;;;14.32;7.72;;;563.60;2432.00;;;;;;5092893;28;20029;-79
2022/06/02 05:38:30;;;;;;;18.45;9.18;;;563.60;2432.00;;;;;;5076063;28;20027;-80
2022/06/02 05:41:14;;;;;;;12.95;7.57;;;563.70;2432.00;;;;;;5092597;28;20101;-79
2022/06/02 05:44:02;;;;;;;18.10;7.25;;;563.60;2432.00;;;;;;5092918;28;20024;-79
2022/06/02 05:47:10;;;;;;;15.40;7.90;;;563.70;2432.00;;;;;;5092376;28;20074;-79
2022/06/02 05:49:51;;;;;;;15.43;7.97;;;563.80;2432.00;;;;;;5092595;28;20024;-78
2022/06/02 05:52:45;;;;;;;11.80;6.97;;;563.80;2432.00;;;;;;5092496;28;20032;-79
2022/06/02 05:55:23;;;;;;;22.13;8.85;;;564.00;2432.00;;;;;;5092141;28;20043;-79
2022/06/02 05:58:03;;;;;;;14.55;8.32;;;564.10;2432.00;;;;;;5092279;28;20029;-79
2022/06/02 06:00:39;;;;;;;11.88;6.75;;;564.10;2432.00;;;;;;5092479;28;20054;-79
2022/06/02 06:03:23;;;;;;;14.98;7.47;;;588.90;2432.00;;;;;;5092589;28;20136;-79
2022/06/02 06:06:02;;;;;;;11.32;7.03;;;589.00;2432.00;;;;;;5092452;28;20048;-79
2022/06/02 06:08:33;;;;;;;12.63;6.60;;;589.00;2432.00;;;;;;5091968;28;20080;-79
2022/06/02 06:11:11;;;;;;;14.90;7.23;;;589.10;2432.00;;;;;;5076703;28;20024;-79
2022/06/02 06:14:01;;;;;;;14.27;7.15;;;589.00;2432.00;;;;;;5091946;28;20365;-79
2022/06/02 06:16:44;;;;;;;15.02;7.30;;;589.10;2432.00;;;;;;5092022;28;20027;-80
2022/06/02 06:19:28;;;;;;;12.32;6.82;;;589.00;2432.00;;;;;;5091745;28;20060;-79
2022/06/02 06:22:44;;;;;;;11.88;7.15;;;589.00;2432.00;;;;;;5091961;28;20090;-79
2022/06/02 06:25:09;;;;;;;12.70;7.25;;;588.90;2432.00;;;;;;5074355;28;20040;-79
2022/06/02 06:27:50;;;;;;;13.60;7.53;;;588.90;2432.00;;;;;;5092048;28;20020;-79
2022/06/02 06:30:34;;;;;;;19.58;8.23;;;588.90;2432.00;;;;;;5091842;28;20113;-80
2022/06/02 06:33:16;;;;;;;13.95;6.85;;;588.90;2432.00;;;;;;5091664;28;20510;-80
2022/06/02 06:36:23;;;;;;;15.48;7.20;;;589.00;2432.00;;;;;;5075948;28;20031;-79
2022/06/02 06:39:02;;;;;;;14.32;7.53;;;589.20;2432.00;;;;;;5075833;28;20031;-80
2022/06/02 06:41:57;;;;;;;18.60;8.38;;;589.30;2432.00;;;;;;5091733;28;20028;-79
2022/06/02 06:44:32;;;;;;;14.82;6.75;;;589.40;2432.00;;;;;;5071569;28;20033;-81
2022/06/02 06:47:10;;;;;;;16.05;6.88;;;589.50;2432.00;;;;;;5095061;28;20028;-79
2022/06/02 06:49:53;;;;;;;12.85;6.45;;;589.60;2432.00;;;;;;5094656;28;20020;-79
2022/06/02 06:52:28;;;;;;;10.73;6.18;;;614.40;2432.00;;;;;;5094550;28;20036;-79
2022/06/02 06:55:19;;;;;;;15.07;7.15;;;614.50;2432.00;;;;;;5094656;28;20042;-79
2022/06/02 06:58:10;;;;;;;13.50;6.88;;;614.80;2432.00;;;;;;5094424;28;20109;-78
2022/06/02 07:00:48;;;;;;;9.38;6.03;;;615.10;2432.00;;;;;;5094515;28;20456;-79
2022/06/02 07:03:35;;;;;;;9.50;5.88;;;615.30;2432.00;;;;;;5095648;28;20032;-78
2022/06/02 07:06:44;;;;;;;13.20;6.82;;;615.30;2432.00;;;;;;5111581;28;20047;-80
2022/06/02 07:09:24;;;;;;;12.48;6.50;;;640.20;2432.00;;;;;;5111052;28;20054;-79
2022/06/02 07:15:00;;;;;;;14.23;6.38;;;640.50;2432.00;;;;;;5095706;28;20161;-79
2022/06/02 07:17:35;;;;;;;11.65;5.82;;;640.70;2432.00;;;;;;5111090;28;20035;-79
2022/06/02 07:20:21;;;;;;;13.45;6.30;;;640.20;2432.00;;;;;;5111462;28;20068;-79
2022/06/02 07:22:54;;;;;;;12.13;6.57;;;640.50;2432.00;;;;;;5111421;28;20490;-78
2022/06/02 07:25:49;;;;;;;12.95;6.35;;;640.60;2432.00;;;;;;5094229;28;20081;-79
2022/06/02 07:28:22;;;;;;;16.00;5.25;;;640.80;2432.00;;;;;;5076446;28;20032;-79
2022/06/02 07:30:51;;;;;;;8.85;5.35;;;665.80;2432.00;;;;;;5111022;28;20028;-79
2022/06/02 07:33:31;;;;;;;18.38;5.72;;;666.00;2432.00;;;;;;5095380;28;20032;-79
2022/06/02 07:36:20;;;;;;;18.27;6.25;;;666.30;2432.00;;;;;;5111111;28;20119;-79
2022/06/02 07:39:10;;;;;;;10.80;5.60;;;666.40;2432.00;;;;;;5095010;28;20035;-79
2022/06/02 07:41:47;;;;;;;11.30;5.90;;;666.50;2432.00;;;;;;5111011;28;20050;-78
2022/06/02 07:44:34;;;;;;;12.13;5.85;;;691.30;2432.00;;;;;;5111031;28;20028;-79
2022/06/02 07:47:45;;;;;;;10.98;5.10;;;691.60;2432.00;;;;;;5110744;28;20089;-79
2022/06/02 07:50:29;;;;;;;17.00;5.75;;;691.40;2432.00;;;;;;5049488;28;20050;-79
2022/06/02 07:53:14;;;;;;;12.13;5.47;;;691.40;2432.00;;;;;;5110730;28;20035;-79
2022/06/02 07:56:10;;;;;;;11.88;4.85;;;691.50;2432.00;;;;;;5110620;28;20384;-79
2022/06/02 07:59:24;;;;;;;9.57;5.78;;;691.20;2432.00;;;;;;5094963;28;20099;-78
2022/06/02 08:02:17;;;;;;;14.73;4.60;;;691.30;2432.00;;;;;;5057481;28;20435;-79
2022/06/02 08:05:01;;;;;;;10.40;5.32;;;691.70;2432.00;;;;;;5093912;28;20028;-79
2022/06/02 08:07:37;;;;;;;14.45;5.95;;;691.90;2432.00;;;;;;5109647;28;20135;-78
2022/06/02 08:10:19;;;;;;;15.70;5.80;;;716.90;2432.00;;;;;;5109386;28;20123;-79
2022/06/02 08:12:53;;;;;;;13.05;4.90;;;717.00;2432.00;;;;;;5072640;28;20052;-79
2022/06/02 08:15:39;;;;;;;11.68;4.55;;;717.20;2432.00;;;;;;5089408;28;20098;-79
2022/06/02 08:18:43;;;;;;;11.30;5.65;;;717.10;2432.00;;;;;;5089700;28;20028;-80
2022/06/02 08:21:40;;;;;;;10.18;5.13;;;716.80;2432.00;;;;;;5072955;28;20024;-81
2022/06/02 08:24:44;;;;;;;15.98;5.32;;;717.40;2432.00;;;;;;5072849;28;20024;-80
2022/06/02 08:27:23;;;;;;;18.33;7.53;;;742.40;2432.00;;;;;;5072259;28;20032;-81
2022/06/02 08:30:01;;;;;;;11.52;4.75;;;717.70;2329.60;;;;;;5093180;28;20051;-81
2022/06/02 08:32:56;;;;;;;11.32;4.50;;;742.40;2329.60;;;;;;5092943;28;20032;-80
2022/06/02 08:35:51;;;;;;;16.92;12.68;;;742.50;2329.60;;;;;;5103919;28;20066;-80
2022/06/02 08:38:26;;;;;;;10.80;5.53;;;742.80;2329.60;;;;;;5105644;28;20054;-79
2022/06/02 08:40:58;;;;;;;10.63;5.75;;;742.90;2278.40;;;;;;5107067;28;20024;-79
2022/06/02 08:43:48;;;;;;;8.73;4.07;;;743.00;2227.20;;;;;;5101566;28;20036;-79
2022/06/02 08:46:34;;;;;;;12.48;4.88;;;743.20;2201.60;;;;;;5092405;28;20039;-78
2022/06/02 08:49:42;;;;;;;12.88;4.80;;;743.30;2201.60;;;;;;5091237;28;20028;-79
2022/06/02 08:52:29;;;;;;;9.65;4.78;;;743.10;2227.20;;;;;;5091576;28;20020;-79
2022/06/02 08:55:20;;;;;;;11.43;5.20;;;743.30;2201.60;;;;;;5090882;28;20055;-79
2022/06/02 08:58:07;;;;;;;10.73;4.95;;;768.30;2124.80;;;;;;5073582;28;20077;-79
2022/06/02 09:00:47;;;;;;;16.90;7.13;;;768.30;2099.20;;;;;;5106723;28;20028;-80
2022/06/02 09:03:41;;;;;;;9.23;5.05;;;768.50;2124.80;;;;;;5107085;28;20024;-80
2022/06/02 09:06:31;;;;;;;10.65;5.00;;;768.70;2073.60;;;;;;5092776;28;20020;-80
2022/06/02 09:09:14;;;;;;;14.10;5.00;;;768.70;2099.20;;;;;;5107030;28;20093;-80
2022/06/02 09:12:13;;;;;;;11.63;4.90;;;768.90;2048.00;;;;;;5092233;28;20039;-82
2022/06/02 09:15:01;;;;;;;8.90;4.20;;;793.90;2073.60;;;;;;5092169;28;20028;-80
2022/06/02 09:17:46;;;;;;;9.57;4.97;;;768.90;2048.00;;;;;;5092325;28;20028;-78
2022/06/02 09:20:47;;;;;;;12.75;8.10;;;768.40;2048.00;;;;;;5092155;28;20024;-81
2022/06/02 09:23:16;;;;;;;13.75;8.38;;;793.70;2048.00;;;;;;5054064;28;20025;-79
2022/06/02 09:25:58;;;;;;;11.73;7.18;;;794.00;2022.40;;;;;;5084074;28;20040;-79
2022/06/02 09:28:42;;;;;;;;;;;794.30;1971.20;;;;;;5092446;28;20020;-79
2022/06/02 09:31:13;;;;;;;12.00;6.28;;;819.20;1971.20;;;;;;5093414;28;19904;-78
2022/06/02 09:33:51;;;;;;;9.35;4.00;;;819.30;1920.00;;;;;;5091822;28;20032;-78
2022/06/02 09:36:45;;;;;;;11.63;4.50;;;819.30;1920.00;;;;;;5092211;28;20035;-83
2022/06/02 09:39:39;;;;;;;10.63;3.88;;;819.50;1920.00;;;;;;5092601;28;20024;-81
2022/06/02 09:42:17;;;;;;;8.77;4.30;;;819.60;1817.60;;;;;;5091859;28;20486;-79
2022/06/02 09:45:01;;;;;;;10.15;4.25;;;819.80;1843.20;;;;;;5092135;28;20109;-80
2022/06/02 09:47:30;;;;;;;12.95;7.88;;;819.70;1843.20;;;;;;5092432;28;20024;-76
2022/06/02 09:49:58;;;;;;;10.48;5.70;;;819.90;1868.80;;;;;;5094568;28;20020;-79
2022/06/02 09:53:06;;;;;;;10.85;4.57;;;844.90;1868.80;;;;;;5094822;28;20487;-80
2022/06/02 09:55:44;;;;;;;8.93;3.65;;;845.00;1843.20;;;;;;5081457;28;20075;-80
2022/06/02 09:58:31;;;;;;;10.18;5.72;;;845.10;1843.20;;;;;;5086074;28;20452;-79
2022/06/02 10:01:17;;;;;;;11.30;6.07;;;845.20;1843.20;;;;;;5075708;28;20036;-79
2022/06/02 10:04:01;;;;;;;12.73;6.57;;;845.40;1817.60;;;;;;5075150;28;20036;-80
2022/06/02 10:07:10;;;;;;;7.60;3.97;;;845.40;1817.60;;;;;;5075267;28;20498;-80
2022/06/02 10:10:01;;;;;;;12.13;4.57;;;845.10;1792.00;;;;;;5074873;28;20063;-79
2022/06/02 10:15:29;;;;;;;9.02;4.70;;;845.00;1792.00;;;;;;5076146;28;20198;-80
2022/06/02 10:17:57;;;;;;;10.10;4.00;;;845.10;1792.00;;;;;;5075129;28;20024;-80
2022/06/02 10:20:50;;;;;;;10.07;3.63;;;844.80;1792.00;;;;;;5075003;28;20464;-80
2022/06/02 10:23:22;;;;;;;11.07;4.60;;;819.90;1740.80;;;;;;5074715;28;20103;-80
2022/06/02 10:26:10;;;;;;;8.95;4.10;;;845.00;1740.80;;;;;;5074979;28;20094;-81
2022/06/02 10:28:57;;;;;;;8.60;4.13;;;845.70;1740.80;;;;;;5082480;28;20020;-78
2022/06/02 10:31:35;;;;;;;12.18;3.60;;;870.50;1740.80;;;;;;5092589;28;20028;-78
2022/06/02 10:34:32;;;;;;;10.55;3.92;;;870.60;1689.60;;;;;;5110994;28;20114;-81
2022/06/02 10:37:23;;;;;;;11.05;4.32;;;870.80;1689.60;;;;;;5094788;28;20043;-82
2022/06/02 10:40:44;;;;;;;10.75;4.90;;;870.90;1638.40;;;;;;5094868;28;20034;-79
2022/06/02 10:43:36;;;;;;;10.45;5.20;;;871.10;1638.40;;;;;;5055166;28;20043;-81
2022/06/02 10:46:11;;;;;;;12.02;4.35;;;871.20;1587.20;;;;;;5096162;28;20028;-81
2022/06/02 10:49:15;;;;;;;11.55;4.47;;;871.30;1612.80;;;;;;5095123;28;20467;-81
2022/06/02 10:51:59;;;;;;;7.90;4.43;;;896.10;1561.60;;;;;;5094732;28;20032;-80
2022/06/02 10:54:50;;;;;;;10.25;3.53;;;896.10;1561.60;;;;;;5092860;28;20035;-81
2022/06/02 10:57:47;;;;;;;10.50;5.93;;;896.20;1536.00;;;;;;5117016;28;20018;-80
2022/06/02 11:00:15;;;;;;;17.13;7.03;;;896.20;1510.40;;;;;;5115626;28;20032;-83
2022/06/02 11:03:26;;;;;;;8.15;4.32;;;896.30;1510.40;;;;;;5093399;28;20115;-83
2022/06/02 11:05:57;;;;;;;11.43;4.10;;;896.20;1510.40;;;;;;5108934;28;20024;-84
2022/06/02 11:08:30;;;;;;;12.68;4.45;;;871.30;1510.40;;;;;;5096126;28;20515;-84
2022/06/02 11:11:26;;;;;;;11.20;5.50;;;871.00;1510.40;;;;;;5095195;28;20024;-83
2022/06/02 11:14:32;;;;;;;12.13;5.85;;;870.80;1536.00;;;;;;5095030;28;20046;-81
2022/06/02 11:17:34;;;;;;;10.18;3.83;;;870.80;1510.40;;;;;;5079758;28;20032;-83
2022/06/02 11:20:24;;;;;;;8.30;3.38;;;870.90;1536.00;;;;;;5094867;28;20114;-82
2022/06/02 11:23:21;;;;;;;8.48;3.17;;;871.10;1510.40;;;;;;5095691;28;20103;-82
2022/06/02 11:26:07;;;;;;;11.48;3.80;;;871.10;1510.40;;;;;;5094649;28;20349;-83
2022/06/02 11:28:54;;;;;;;14.18;3.90;;;871.00;1510.40;;;;;;5094952;28;20686;-83
2022/06/02 11:31:38;;;;;;;9.55;3.85;;;871.00;1536.00;;;;;;5094129;28;20028;-83
2022/06/02 11:34:42;;;;;;;10.45;6.10;;;871.00;1536.00;;;;;;5094321;28;20073;-82
2022/06/02 11:37:38;;;;;;;14.20;4.35;;;871.10;1561.60;;;;;;5092748;28;20039;-81
2022/06/02 11:40:09;;;;;;;11.02;4.22;;;870.60;1587.20;;;;;;5094388;28;20020;-82
2022/06/02 11:42:44;;;;;;;;;;;870.40;1587.20;;;;;;5094926;28;20529;-83
2022/06/02 11:45:31;;;;;;;10.63;3.88;;;845.60;1612.80;;;;;;5111323;28;20271;-82
2022/06/02 11:48:08;;;;;;;17.38;9.18;;;870.40;1638.40;;;;;;5094117;28;20077;-83
2022/06/02 11:50:40;;;;;;;13.38;6.43;;;870.90;1612.80;;;;;;5094259;28;20028;-82
2022/06/02 11:53:25;;;;;;;;;;;871.30;1561.60;;;;;;5094665;28;20039;-83
2022/06/02 11:55:54;;;;;;;11.50;4.50;;;896.20;1536.00;;;;;;5111799;28;19908;-84
2022/06/02 11:58:41;;;;;;;9.98;5.90;;;896.40;1638.40;;;;;;5094310;28;20058;-83
2022/06/02 12:01:47;;;;;;;13.27;7.22;;;896.80;1638.40;;;;;;5111218;28;20028;-83
2022/06/02 12:04:31;;;;;;;9.05;4.72;;;896.90;1638.40;;;;;;5091514;28;20035;-82
2022/06/02 12:07:48;;;;;;;7.50;3.88;;;896.60;1664.00;;;;;;5094121;28;20020;-83
2022/06/02 12:10:20;;;;;;;8.38;3.70;;;896.90;1664.00;;;;;;5071588;28;20426;-82
2022/06/02 12:13:04;;;;;;;;;;;921.60;1664.00;;;;;;5094224;28;20038;-81
2022/06/02 12:15:39;;;;;;;7.72;3.97;;;921.60;1664.00;;;;;;5110702;28;19908;-81
2022/06/02 12:18:41;;;;;;;6.40;3.40;;;921.70;1689.60;;;;;;5093641;28;20460;-82
2022/06/02 12:21:42;;;;;;;11.73;4.45;;;896.90;1638.40;;;;;;5093780;28;20547;-82
2022/06/02 12:24:42;;;;;;;9.02;4.22;;;921.60;1664.00;;;;;;5071493;28;20046;-82
2022/06/02 12:27:26;;;;;;;10.38;4.53;;;921.80;1664.00;;;;;;5093665;28;20020;-82
2022/06/02 12:30:33;;;;;;;12.38;6.00;;;922.20;1638.40;;;;;;5094311;28;20452;-83
2022/06/02 12:33:23;;;;;;;9.73;4.88;;;922.20;1638.40;;;;;;5064441;28;20563;-82
2022/06/02 12:36:07;;;;;;;10.00;4.72;;;922.30;1638.40;;;;;;5092923;28;20028;-82
2022/06/02 12:38:44;;;;;;;10.07;4.25;;;922.30;1612.80;;;;;;5093037;28;20027;-82
2022/06/02 12:41:33;;;;;;;9.65;4.22;;;947.30;1587.20;;;;;;5093358;28;20081;-83
2022/06/02 12:44:17;;;;;;;11.05;3.90;;;947.30;1561.60;;;;;;5093890;28;20058;-82
2022/06/02 12:47:18;;;;;;;10.60;4.22;;;922.50;1536.00;;;;;;5094304;28;20020;-83
2022/06/02 12:50:11;;;;;;;11.82;4.05;;;947.30;1561.60;;;;;;5093017;28;20078;-82
2022/06/02 12:52:56;;;;;;;13.95;8.30;;;922.30;1561.60;;;;;;5093166;28;20379;-83
2022/06/02 12:55:44;;;;;;;13.07;6.40;;;896.90;1536.00;;;;;;5092853;28;20119;-82
2022/06/02 12:58:24;;;;;;;10.40;4.53;;;896.70;1561.60;;;;;;5092361;28;20032;-82
2022/06/02 13:00:53;;;;;;;8.90;4.45;;;896.80;1561.60;;;;;;5093798;28;20040;-82
2022/06/02 13:03:40;;;;;;;11.38;4.45;;;921.90;1561.60;;;;;;5092644;28;20130;-82
2022/06/02 13:06:39;;;;;;;11.25;4.20;;;921.80;1536.00;;;;;;5092497;28;20127;-82
2022/06/02 13:09:23;;;;;;;9.82;4.55;;;922.50;1510.40;;;;;;5092692;28;20056;-81
2022/06/02 13:12:07;;;;;;;9.48;3.40;;;947.30;1510.40;;;;;;5092668;28;20119;-84
2022/06/02 13:14:58;;;;;;;10.23;4.55;;;947.60;1510.40;;;;;;5093500;28;20028;-84
2022/06/02 13:17:56;;;;;;;9.77;3.97;;;947.60;1484.80;;;;;;5092733;28;20025;-81
2022/06/02 13:21:10;;;;;;;8.60;3.97;;;947.30;1484.80;;;;;;5092604;28;20482;-82
2022/06/02 13:24:02;;;;;;;10.05;3.80;;;922.50;1536.00;;;;;;5093001;28;20024;-82
2022/06/02 13:26:49;;;;;;;12.93;3.88;;;896.90;1561.60;;;;;;5096344;28;20028;-82
2022/06/02 13:29:41;;;;;;;9.25;3.45;;;896.60;1561.60;;;;;;5096554;28;20035;-82
2022/06/02 13:32:20;;;;;;;8.57;3.97;;;896.90;1561.60;;;;;;5080094;28;20040;-82
2022/06/02 13:35:11;;;;;;;7.72;3.80;;;896.90;1587.20;;;;;;5096521;28;20142;-82
2022/06/02 13:38:18;;;;;;;17.15;4.13;;;921.70;1587.20;;;;;;5096451;28;20077;-81
2022/06/02 13:41:10;;;;;;;14.40;4.25;;;921.70;1638.40;;;;;;5095842;28;20066;-81
2022/06/02 13:43:46;;;;;;;13.27;4.18;;;921.80;1612.80;;;;;;5096139;28;20063;-81
2022/06/02 13:46:42;;;;;;;9.27;3.58;;;921.80;1587.20;;;;;;5095805;28;20055;-81
2022/06/02 13:49:45;;;;;;;8.35;3.40;;;921.80;1587.20;;;;;;5096812;28;20535;-83
2022/06/02 13:52:46;;;;;;;10.77;3.70;;;896.90;1561.60;;;;;;5096042;28;20121;-82
2022/06/02 13:58:51;;;;;;;11.93;3.67;;;871.10;1587.20;;;;;;5096850;28;20058;-81
2022/06/02 14:01:20;;;;;;;10.77;3.60;;;896.00;1561.60;;;;;;5095537;28;20073;-81
2022/06/02 14:04:10;;;;;;;11.07;3.53;;;896.70;1536.00;;;;;;5095880;28;20468;-82
2022/06/02 14:06:59;;;;;;;11.27;4.78;;;921.70;1510.40;;;;;;5075737;28;20074;-82